Private Wetterstation Wechselburg
Wetterdaten: Woche 19.09.11 - 25.09.11 (KW38)
Datum Zeit Temp. +2m Bodentemp. Temp.+5cm Temp. Wind Windchill X Diff Temp. Feuchte +2m Feuchte +5cm Sonnenschein Luftdruck Regen Wind Richtung Sonnenschein UV Taupunkt Windchill Windben
19.09.2011 00:00 11,0 C 20,1 C 11,3 C 10,9 C 10,7 C 0,0 C 91 % 96 % 0 % 1008,3 hPa 0,0 l/m 0,5 km/h (0 Bft) N 0,00 h 0,0 UV-I 9,6 C 10,7 C 1,0 km/h (0 Bft)
19.09.2011 01:00 10,8 C 19,9 C 11,1 C 10,7 C 10,6 C 0,0 C 91 % 96 % 0 % 1008,7 hPa 0,0 l/m 1,1 km/h (1 Bft) SW 0,00 h 0,0 UV-I 9,4 C 10,6 C 2,7 km/h (1 Bft)
19.09.2011 02:00 10,7 C 19,8 C 11,0 C 10,7 C 10,6 C 0,0 C 91 % 96 % 0 % 1008,9 hPa 0,0 l/m 1,5 km/h (1 Bft) S 0,00 h 0,0 UV-I 9,3 C 10,6 C 2,4 km/h (1 Bft)
19.09.2011 03:00 10,7 C 19,7 C 11,1 C 10,7 C 10,6 C 0,0 C 90 % 96 % 0 % 1009,2 hPa 0,0 l/m 0,8 km/h (0 Bft) O-SO 0,00 h 0,0 UV-I 9,1 C 10,6 C 1,2 km/h (1 Bft)
19.09.2011 04:00 10,7 C 19,6 C 10,9 C 10,6 C 10,4 C 0,0 C 90 % 96 % 0 % 1009,3 hPa 0,0 l/m 0,8 km/h (0 Bft) SW 0,00 h 0,0 UV-I 9,1 C 10,4 C 1,9 km/h (1 Bft)
19.09.2011 05:00 10,6 C 19,5 C 10,8 C 10,6 C 10,5 C 0,0 C 90 % 96 % 0 % 1009,3 hPa 0,0 l/m 3,1 km/h (1 Bft) W 0,00 h 0,0 UV-I 9,0 C 10,5 C 5,6 km/h (1 Bft)
19.09.2011 06:00 10,7 C 19,5 C 10,9 C 10,6 C 10,4 C 0,0 C 89 % 96 % 0 % 1009,9 hPa 0,0 l/m 0,6 km/h (0 Bft) N 0,00 h 0,0 UV-I 8,9 C 10,4 C 0,7 km/h (0 Bft)
19.09.2011 07:00 10,3 C 19,5 C 10,7 C 10,2 C 10,0 C 0,0 C 90 % 96 % 0 % 1010,1 hPa 0,0 l/m 0,0 km/h (0 Bft) N 0,00 h 0,0 UV-I 8,8 C 10,0 C 0,0 km/h (0 Bft)
19.09.2011 08:00 10,6 C 19,4 C 11,1 C 11,5 C 11,5 C 0,9 C 91 % 96 % 24 % 1010,5 hPa 0,0 l/m 0,0 km/h (0 Bft) N 0,00 h 0,0 UV-I 9,2 C 11,5 C 0,0 km/h (0 Bft)
19.09.2011 09:00 12,3 C 19,2 C 11,9 C 14,3 C 14,3 C 2,0 C 88 % 96 % 53 % 1011,2 hPa 0,0 l/m 0,2 km/h (0 Bft) N 0,00 h 0,2 UV-I 10,4 C 14,3 C 0,3 km/h (0 Bft)
19.09.2011 10:00 13,4 C 19,1 C 12,1 C 15,4 C 15,4 C 2,0 C 82 % 96 % 53 % 1011,5 hPa 0,0 l/m 1,7 km/h (1 Bft) SW 0,00 h 0,2 UV-I 10,4 C 15,4 C 3,8 km/h (1 Bft)
19.09.2011 11:00 14,0 C 19,1 C 13,2 C 15,6 C 15,6 C 1,6 C 80 % 96 % 42 % 1011,8 hPa 0,0 l/m 1,5 km/h (1 Bft) W-SW 0,00 h 0,0 UV-I 10,6 C 15,6 C 1,6 km/h (1 Bft)
19.09.2011 12:00 14,4 C 19,1 C 13,2 C 15,9 C 15,9 C 1,5 C 78 % 96 % 40 % 1012,4 hPa 0,0 l/m 1,1 km/h (1 Bft) SO 0,00 h 0,0 UV-I 10,7 C 15,9 C 1,3 km/h (1 Bft)
19.09.2011 13:00 14,9 C 19,1 C 13,2 C 16,7 C 16,7 C 1,8 C 77 % 96 % 48 % 1012,6 hPa 0,0 l/m 0,9 km/h (0 Bft) W 0,00 h 0,0 UV-I 10,8 C 16,7 C 1,0 km/h (0 Bft)
19.09.2011 14:00 15,2 C 19,2 C 13,2 C 16,8 C 16,8 C 1,7 C 76 % 96 % 44 % 1012,8 hPa 0,0 l/m 1,8 km/h (1 Bft) SW 0,00 h 0,0 UV-I 10,9 C 16,8 C 3,0 km/h (1 Bft)
19.09.2011 15:00 15,4 C 19,2 C 14,2 C 17,1 C 17,1 C 1,6 C 73 % 87 % 43 % 1013,1 hPa 0,0 l/m 1,7 km/h (1 Bft) S 0,00 h 0,0 UV-I 10,7 C 17,1 C 2,6 km/h (1 Bft)
19.09.2011 16:00 16,5 C 19,2 C 16,6 C 19,1 C 19,1 C 2,6 C 69 % 75 % 68 % 1013,5 hPa 0,0 l/m 3,3 km/h (1 Bft) SW 0,08 h 0,0 UV-I 10,8 C 19,1 C 4,3 km/h (1 Bft)
19.09.2011 17:00 16,1 C 19,3 C 16,6 C 19,2 C 19,2 C 3,1 C 69 % 73 % 81 % 1014,1 hPa 0,0 l/m 2,5 km/h (1 Bft) SW 0,77 h 0,0 UV-I 10,5 C 19,2 C 3,0 km/h (1 Bft)
19.09.2011 18:00 15,1 C 19,3 C 15,2 C 17,1 C 17,1 C 2,1 C 75 % 79 % 54 % 1014,8 hPa 0,0 l/m 0,4 km/h (0 Bft) N 0,83 h 0,0 UV-I 10,7 C 17,1 C 0,6 km/h (0 Bft)
19.09.2011 19:00 12,9 C 19,4 C 13,4 C 12,5 C 11,7 C 0,0 C 83 % 86 % 0 % 1015,6 hPa 0,0 l/m 0,0 km/h (0 Bft) N 0,00 h 0,0 UV-I 10,1 C 11,7 C 0,0 km/h (0 Bft)
19.09.2011 20:00 11,2 C 19,4 C 12,1 C 10,9 C 10,2 C 0,0 C 88 % 89 % 0 % 1016,2 hPa 0,0 l/m 0,0 km/h (0 Bft) N 0,00 h 0,0 UV-I 9,3 C 10,2 C 0,0 km/h (0 Bft)
19.09.2011 21:00 10,3 C 19,4 C 11,3 C 10,0 C 9,5 C 0,0 C 90 % 90 % 0 % 1016,8 hPa 0,0 l/m 0,0 km/h (0 Bft) N 0,00 h 0,0 UV-I 8,6 C 9,5 C 0,0 km/h (0 Bft)
19.09.2011 22:00 10,1 C 19,6 C 11,2 C 10,1 C 10,0 C 0,1 C 91 % 92 % 0 % 1017,5 hPa 0,0 l/m 0,0 km/h (0 Bft) N 0,00 h 0,0 UV-I 8,7 C 10,0 C 0,0 km/h (0 Bft)
19.09.2011 23:00 10,4 C 19,5 C 11,4 C 10,4 C 10,4 C 0,1 C 92 % 92 % 0 % 1017,9 hPa 0,0 l/m 0,0 km/h (0 Bft) N 0,00 h 0,0 UV-I 9,1 C 10,4 C 0,0 km/h (0 Bft)
20.09.2011 00:00 10,4 C 19,4 C 11,5 C 10,5 C 10,5 C 0,0 C 92 % 92 % 0 % 1018,9 hPa 0,0 l/m 0,0 km/h (0 Bft) N 0,00 h 0,0 UV-I 9,2 C 10,5 C 0,0 km/h (0 Bft)
20.09.2011 01:00 10,4 C 19,3 C 11,5 C 10,4 C 10,4 C 0,0 C 92 % 92 % 0 % 1019,3 hPa 0,0 l/m 0,1 km/h (0 Bft) N 0,00 h 0,0 UV-I 9,2 C 10,4 C 0,1 km/h (0 Bft)
20.09.2011 02:00 10,5 C 19,2 C 11,5 C 10,5 C 10,4 C 0,0 C 93 % 92 % 0 % 1019,5 hPa 0,0 l/m 0,0 km/h (0 Bft) N 0,00 h 0,0 UV-I 9,5 C 10,4 C 0,0 km/h (0 Bft)
20.09.2011 03:00 10,3 C 19,2 C 11,2 C 10,2 C 9,8 C 0,0 C 92 % 92 % 0 % 1019,7 hPa 0,0 l/m 0,0 km/h (0 Bft) N 0,00 h 0,0 UV-I 9,1 C 9,8 C 0,3 km/h (0 Bft)
20.09.2011 04:00 10,3 C 19,0 C 11,1 C 10,1 C 9,9 C 0,0 C 92 % 92 % 0 % 1020,3 hPa 0,0 l/m 0,1 km/h (0 Bft) N 0,00 h 0,0 UV-I 9,0 C 9,9 C 0,7 km/h (0 Bft)
20.09.2011 05:00 10,2 C 19,0 C 11,1 C 10,1 C 9,8 C 0,0 C 93 % 92 % 0 % 1021,0 hPa 0,0 l/m 0,0 km/h (0 Bft) N 0,00 h 0,0 UV-I 9,0 C 9,8 C 0,0 km/h (0 Bft)
20.09.2011 06:00 9,7 C 19,0 C 10,6 C 9,4 C 8,8 C 0,0 C 92 % 91 % 0 % 1021,5 hPa 0,0 l/m 0,0 km/h (0 Bft) N 0,00 h 0,0 UV-I 8,4 C 8,8 C 0,0 km/h (0 Bft)
20.09.2011 07:00 8,9 C 19,0 C 9,9 C 8,7 C 8,2 C 0,0 C 92 % 92 % 0 % 1022,3 hPa 0,0 l/m 0,0 km/h (0 Bft) N 0,00 h 0,0 UV-I 7,7 C 8,2 C 0,0 km/h (0 Bft)
20.09.2011 08:00 9,3 C 18,8 C 10,0 C 10,1 C 10,1 C 0,8 C 93 % 93 % 22 % 1022,7 hPa 0,0 l/m 0,1 km/h (0 Bft) N 0,00 h 0,0 UV-I 8,2 C 10,1 C 0,5 km/h (0 Bft)
20.09.2011 09:00 10,7 C 18,5 C 10,0 C 12,6 C 12,6 C 2,0 C 94 % 93 % 52 % 1022,9 hPa 0,0 l/m 1,1 km/h (1 Bft) S 0,00 h 0,0 UV-I 9,7 C 12,6 C 2,0 km/h (1 Bft)
20.09.2011 10:00 12,7 C 18,4 C 10,0 C 14,1 C 14,1 C 1,5 C 91 % 93 % 39 % 1023,4 hPa 0,0 l/m 2,3 km/h (1 Bft) SW 0,00 h 0,0 UV-I 11,2 C 14,1 C 4,0 km/h (1 Bft)
20.09.2011 11:00 14,6 C 18,4 C 13,9 C 15,9 C 15,9 C 1,3 C 81 % 84 % 33 % 1023,8 hPa 0,0 l/m 3,5 km/h (1 Bft) W-SW 0,00 h 0,0 UV-I 11,3 C 15,9 C 6,2 km/h (2 Bft)
20.09.2011 12:00 16,6 C 18,3 C 15,3 C 19,5 C 19,5 C 2,8 C 71 % 77 % 71 % 1023,7 hPa 0,0 l/m 4,4 km/h (1 Bft) SW 0,50 h 1,1 UV-I 11,4 C 19,5 C 5,9 km/h (2 Bft)
20.09.2011 13:00 18,3 C 18,4 C 16,4 C 22,9 C 22,9 C 4,6 C 65 % 73 % 99 % 1023,4 hPa 0,0 l/m 3,9 km/h (1 Bft) SO 1,00 h 0,0 UV-I 11,6 C 22,9 C 4,9 km/h (1 Bft)
20.09.2011 14:00 19,1 C 18,4 C 18,8 C 23,3 C 23,3 C 4,2 C 61 % 66 % 93 % 1023,2 hPa 0,0 l/m 3,2 km/h (1 Bft) W-SW 0,75 h 0,0 UV-I 11,3 C 23,3 C 4,4 km/h (1 Bft)
20.09.2011 15:00 19,0 C 18,4 C 20,0 C 21,2 C 21,2 C 2,2 C 60 % 61 % 57 % 1022,9 hPa 0,0 l/m 2,9 km/h (1 Bft) W-SW 0,17 h 0,0 UV-I 11,1 C 21,2 C 3,5 km/h (1 Bft)
20.09.2011 16:00 18,9 C 18,6 C 19,0 C 20,5 C 20,5 C 1,6 C 62 % 64 % 43 % 1022,6 hPa 0,0 l/m 1,8 km/h (1 Bft) W-SW 0,08 h 0,0 UV-I 11,3 C 20,5 C 2,3 km/h (1 Bft)
20.09.2011 17:00 18,9 C 18,7 C 19,2 C 23,6 C 23,6 C 4,7 C 61 % 63 % 99 % 1022,6 hPa 0,0 l/m 1,3 km/h (1 Bft) W-SW 1,00 h 0,0 UV-I 11,2 C 23,6 C 2,1 km/h (1 Bft)
20.09.2011 18:00 17,6 C 18,8 C 17,5 C 20,1 C 20,1 C 2,5 C 66 % 69 % 67 % 1022,6 hPa 0,0 l/m 0,2 km/h (0 Bft) N 0,92 h 0,0 UV-I 11,2 C 20,1 C 0,4 km/h (0 Bft)
20.09.2011 19:00 14,5 C 18,8 C 14,9 C 14,0 C 13,0 C 0,0 C 79 % 81 % 0 % 1023,1 hPa 0,0 l/m 0,0 km/h (0 Bft) N 0,00 h 0,0 UV-I 10,8 C 13,0 C 0,0 km/h (0 Bft)
20.09.2011 20:00 12,0 C 18,8 C 13,0 C 11,6 C 10,6 C 0,0 C 85 % 87 % 0 % 1023,4 hPa 0,0 l/m 0,0 km/h (0 Bft) N 0,00 h 0,0 UV-I 9,7 C 10,6 C 0,0 km/h (0 Bft)
20.09.2011 21:00 10,6 C 19,3 C 12,0 C 10,3 C 9,7 C 0,0 C 88 % 88 % 0 % 1023,6 hPa 0,0 l/m 0,0 km/h (0 Bft) N 0,00 h 0,0 UV-I 8,7 C 9,7 C 0,0 km/h (0 Bft)
20.09.2011 22:00 10,0 C 19,4 C 11,1 C 9,8 C 9,3 C 0,0 C 90 % 89 % 0 % 1023,9 hPa 0,0 l/m 0,0 km/h (0 Bft) N 0,00 h 0,0 UV-I 8,4 C 9,3 C 0,0 km/h (0 Bft)
20.09.2011 23:00 9,3 C 19,3 C 10,7 C 9,1 C 8,5 C 0,0 C 90 % 90 % 0 % 1023,4 hPa 0,0 l/m 0,0 km/h (0 Bft) N 0,00 h 0,0 UV-I 7,8 C 8,5 C 0,0 km/h (0 Bft)
21.09.2011 00:00 8,5 C 19,2 C 10,2 C 8,3 C 7,9 C 0,0 C 91 % 89 % 0 % 1023,4 hPa 0,0 l/m 0,0 km/h (0 Bft) N 0,00 h 0,0 UV-I 7,1 C 7,9 C 0,0 km/h (0 Bft)
21.09.2011 01:00 8,0 C 19,0 C 9,8 C 7,9 C 7,6 C 0,0 C 91 % 90 % 0 % 1023,3 hPa 0,0 l/m 0,0 km/h (0 Bft) N 0,00 h 0,0 UV-I 6,6 C 7,6 C 0,0 km/h (0 Bft)
21.09.2011 02:00 7,6 C 18,9 C 9,4 C 7,5 C 7,2 C 0,0 C 91 % 90 % 0 % 1023,2 hPa 0,0 l/m 0,0 km/h (0 Bft) N 0,00 h 0,0 UV-I 6,3 C 7,2 C 0,0 km/h (0 Bft)
21.09.2011 03:00 7,6 C 18,9 C 9,1 C 7,4 C 7,1 C 0,0 C 92 % 90 % 0 % 1022,8 hPa 0,0 l/m 0,0 km/h (0 Bft) N 0,00 h 0,0 UV-I 6,3 C 7,1 C 0,0 km/h (0 Bft)
21.09.2011 04:00 7,1 C 18,8 C 8,9 C 6,9 C 6,7 C 0,0 C 92 % 90 % 0 % 1022,8 hPa 0,0 l/m 0,0 km/h (0 Bft) N 0,00 h 0,0 UV-I 5,9 C 6,7 C 0,0 km/h (0 Bft)
21.09.2011 05:00 6,8 C 18,7 C 8,7 C 6,7 C 6,5 C 0,0 C 92 % 91 % 0 % 1022,8 hPa 0,0 l/m 0,0 km/h (0 Bft) N 0,00 h 0,0 UV-I 5,6 C 6,5 C 0,0 km/h (0 Bft)
21.09.2011 06:00 6,6 C 18,5 C 8,5 C 6,5 C 6,3 C 0,0 C 92 % 90 % 0 % 1022,7 hPa 0,0 l/m 0,0 km/h (0 Bft) N 0,00 h 0,0 UV-I 5,4 C 6,3 C 0,0 km/h (0 Bft)
21.09.2011 07:00 6,7 C 18,4 C 8,5 C 8,2 C 8,2 C 1,5 C 93 % 90 % 40 % 1022,4 hPa 0,0 l/m 0,0 km/h (0 Bft) N 0,58 h 0,0 UV-I 5,6 C 8,2 C 0,0 km/h (0 Bft)
21.09.2011 08:00 8,1 C 18,2 C 9,1 C 10,3 C 10,3 C 2,1 C 93 % 92 % 56 % 1022,4 hPa 0,0 l/m 0,0 km/h (0 Bft) N 0,25 h 0,0 UV-I 7,1 C 10,3 C 0,0 km/h (0 Bft)
21.09.2011 09:00 10,2 C 18,0 C 10,9 C 12,5 C 12,5 C 2,3 C 94 % 93 % 60 % 1022,3 hPa 0,0 l/m 0,0 km/h (0 Bft) N 0,00 h 0,0 UV-I 9,3 C 12,5 C 0,0 km/h (0 Bft)
21.09.2011 10:00 12,3 C 17,8 C 12,9 C 16,1 C 16,1 C 3,8 C 95 % 91 % 97 % 1022,1 hPa 0,0 l/m 0,1 km/h (0 Bft) N 0,92 h 0,3 UV-I 11,5 C 16,1 C 0,9 km/h (0 Bft)
21.09.2011 11:00 15,0 C 17,8 C 14,3 C 18,1 C 18,1 C 3,1 C 89 % 87 % 80 % 1021,9 hPa 0,0 l/m 0,5 km/h (0 Bft) SW 0,25 h 0,2 UV-I 13,2 C 18,1 C 0,6 km/h (0 Bft)
21.09.2011 12:00 17,5 C 17,9 C 16,0 C 20,6 C 20,6 C 3,1 C 73 % 78 % 81 % 1021,4 hPa 0,0 l/m 2,3 km/h (1 Bft) SW 0,17 h 0,1 UV-I 12,4 C 20,6 C 4,2 km/h (1 Bft)
21.09.2011 13:00 18,4 C 17,9 C 16,7 C 20,4 C 20,4 C 2,0 C 66 % 74 % 53 % 1021,0 hPa 0,0 l/m 2,8 km/h (1 Bft) W-SW 0,00 h 0,0 UV-I 12,0 C 20,4 C 4,0 km/h (1 Bft)
21.09.2011 14:00 19,3 C 18,1 C 19,5 C 23,1 C 23,1 C 3,7 C 63 % 66 % 90 % 1020,5 hPa 0,0 l/m 3,2 km/h (1 Bft) W-SW 0,58 h 0,0 UV-I 12,1 C 23,1 C 6,2 km/h (2 Bft)
21.09.2011 15:00 19,6 C 18,2 C 19,6 C 21,7 C 21,7 C 2,1 C 61 % 64 % 56 % 1019,8 hPa 0,0 l/m 2,6 km/h (1 Bft) W-SW 0,00 h 0,0 UV-I 11,8 C 21,7 C 4,5 km/h (1 Bft)
21.09.2011 16:00 20,1 C 18,4 C 19,4 C 23,6 C 23,6 C 3,5 C 61 % 65 % 85 % 1019,3 hPa 0,0 l/m 0,7 km/h (0 Bft) O-NO 0,42 h 0,0 UV-I 12,3 C 23,6 C 1,4 km/h (1 Bft)
21.09.2011 17:00 19,2 C 18,4 C 19,1 C 23,8 C 23,8 C 4,6 C 63 % 67 % 100 % 1018,5 hPa 0,0 l/m 0,4 km/h (0 Bft) S-SO 1,00 h 0,0 UV-I 12,0 C 23,8 C 0,7 km/h (0 Bft)
21.09.2011 18:00 17,6 C 18,6 C 17,3 C 20,0 C 20,0 C 2,5 C 70 % 74 % 64 % 1018,3 hPa 0,0 l/m 0,0 km/h (0 Bft) N 1,00 h 0,0 UV-I 12,1 C 20,0 C 0,0 km/h (0 Bft)
21.09.2011 19:00 15,1 C 19,0 C 15,3 C 14,7 C 13,9 C 0,0 C 80 % 83 % 0 % 1018,8 hPa 0,0 l/m 0,0 km/h (0 Bft) N 0,00 h 0,0 UV-I 11,7 C 13,9 C 0,0 km/h (0 Bft)
21.09.2011 20:00 13,1 C 19,2 C 14,3 C 12,7 C 11,9 C 0,0 C 86 % 86 % 0 % 1018,4 hPa 0,0 l/m 0,0 km/h (0 Bft) N 0,00 h 0,0 UV-I 10,8 C 11,9 C 0,0 km/h (0 Bft)
21.09.2011 21:00 12,0 C 19,1 C 14,3 C 11,8 C 11,3 C 0,0 C 89 % 86 % 0 % 1018,2 hPa 0,0 l/m 0,0 km/h (0 Bft) N 0,00 h 0,0 UV-I 10,2 C 11,3 C 0,0 km/h (0 Bft)
21.09.2011 22:00 11,3 C 19,2 C 14,3 C 11,1 C 10,7 C 0,0 C 90 % 86 % 0 % 1018,1 hPa 0,0 l/m 0,0 km/h (0 Bft) N 0,00 h 0,0 UV-I 9,7 C 10,7 C 0,0 km/h (0 Bft)
21.09.2011 23:00 10,9 C 19,3 C 14,3 C 10,7 C 10,4 C 0,0 C 91 % 86 % 0 % 1018,3 hPa 0,0 l/m 0,0 km/h (0 Bft) N 0,00 h 0,0 UV-I 9,5 C 10,4 C 0,0 km/h (0 Bft)
22.09.2011 00:00 10,7 C 19,2 C 14,3 C 10,6 C 10,3 C 0,0 C 91 % 86 % 0 % 1017,7 hPa 0,0 l/m 0,0 km/h (0 Bft) N 0,00 h 0,0 UV-I 9,3 C 10,3 C 0,0 km/h (0 Bft)
22.09.2011 01:00 10,5 C 19,2 C 14,3 C 10,4 C 10,1 C 0,0 C 92 % 86 % 0 % 1017,5 hPa 0,0 l/m 0,0 km/h (0 Bft) N 0,00 h 0,0 UV-I 9,2 C 10,1 C 0,0 km/h (0 Bft)
22.09.2011 02:00 10,2 C 19,1 C 14,3 C 10,1 C 9,9 C 0,0 C 92 % 86 % 0 % 1017,4 hPa 0,0 l/m 0,0 km/h (0 Bft) N 0,00 h 0,0 UV-I 8,9 C 9,9 C 0,0 km/h (0 Bft)
22.09.2011 03:00 9,9 C 19,1 C 14,3 C 9,9 C 9,7 C 0,0 C 92 % 86 % 0 % 1017,3 hPa 0,0 l/m 0,0 km/h (0 Bft) N 0,00 h 0,0 UV-I 8,7 C 9,7 C 0,0 km/h (0 Bft)
22.09.2011 04:00 10,3 C 19,0 C 14,3 C 10,3 C 10,2 C 0,0 C 93 % 86 % 0 % 1017,4 hPa 0,0 l/m 0,0 km/h (0 Bft) N 0,00 h 0,0 UV-I 9,3 C 10,2 C 0,0 km/h (0 Bft)
22.09.2011 05:00 11,0 C 18,6 C 12,1 C 11,0 C 11,0 C 0,1 C 93 % 90 % 0 % 1017,4 hPa 0,0 l/m 0,1 km/h (0 Bft) N 0,00 h 0,0 UV-I 9,9 C 11,0 C 0,3 km/h (0 Bft)
22.09.2011 06:00 11,4 C 18,6 C 12,0 C 11,4 C 11,3 C 0,0 C 92 % 90 % 0 % 1017,1 hPa 0,0 l/m 0,0 km/h (0 Bft) N 0,00 h 0,0 UV-I 10,2 C 11,3 C 0,0 km/h (0 Bft)
22.09.2011 07:00 11,8 C 18,6 C 12,3 C 12,0 C 12,0 C 0,2 C 91 % 90 % 6 % 1017,4 hPa 0,0 l/m 0,0 km/h (0 Bft) N 0,00 h 0,0 UV-I 10,4 C 12,0 C 0,2 km/h (0 Bft)
22.09.2011 08:00 12,7 C 18,4 C 13,0 C 13,6 C 13,6 C 0,9 C 91 % 90 % 23 % 1017,6 hPa 0,0 l/m 0,7 km/h (0 Bft) SO 0,00 h 0,0 UV-I 11,2 C 13,6 C 2,0 km/h (1 Bft)
22.09.2011 09:00 13,9 C 18,4 C 13,7 C 14,9 C 14,9 C 1,0 C 87 % 88 % 25 % 1017,7 hPa 0,0 l/m 1,2 km/h (1 Bft) W-SW 0,00 h 0,0 UV-I 11,7 C 14,9 C 2,0 km/h (1 Bft)
22.09.2011 10:00 15,4 C 18,3 C 14,8 C 16,9 C 16,9 C 1,6 C 81 % 85 % 41 % 1017,9 hPa 0,0 l/m 4,4 km/h (1 Bft) W-SW 0,00 h 0,0 UV-I 12,1 C 16,9 C 6,4 km/h (2 Bft)
22.09.2011 11:00 16,6 C 18,4 C 15,8 C 18,3 C 18,3 C 1,7 C 77 % 82 % 44 % 1017,9 hPa 0,0 l/m 3,9 km/h (1 Bft) W 0,00 h 0,1 UV-I 12,5 C 18,3 C 6,9 km/h (2 Bft)
22.09.2011 12:00 17,7 C 18,4 C 17,0 C 19,4 C 19,4 C 1,7 C 69 % 73 % 45 % 1017,8 hPa 0,0 l/m 8,7 km/h (2 Bft) W-SW 0,00 h 0,1 UV-I 12,0 C 19,4 C 12,5 km/h (3 Bft)
22.09.2011 13:00 18,3 C 18,4 C 17,7 C 20,7 C 20,7 C 2,4 C 66 % 69 % 63 % 1017,4 hPa 0,0 l/m 7,6 km/h (2 Bft) SW 0,08 h 0,0 UV-I 11,8 C 20,7 C 9,7 km/h (2 Bft)
22.09.2011 14:00 18,7 C 18,5 C 19,1 C 20,6 C 20,6 C 1,9 C 63 % 64 % 50 % 1017,0 hPa 0,0 l/m 8,4 km/h (2 Bft) SW 0,00 h 0,0 UV-I 11,4 C 20,6 C 10,0 km/h (2 Bft)
22.09.2011 15:00 19,0 C 18,6 C 19,9 C 20,9 C 20,9 C 1,8 C 61 % 59 % 48 % 1017,0 hPa 0,0 l/m 8,0 km/h (2 Bft) SW 0,08 h 0,0 UV-I 11,3 C 20,9 C 11,0 km/h (2 Bft)
22.09.2011 16:00 18,3 C 18,6 C 18,4 C 19,2 C 19,2 C 0,9 C 62 % 63 % 23 % 1017,3 hPa 0,0 l/m 7,4 km/h (2 Bft) W-SW 0,00 h 0,0 UV-I 10,8 C 19,2 C 7,9 km/h (2 Bft)
22.09.2011 17:00 17,8 C 18,7 C 17,6 C 18,8 C 18,8 C 1,0 C 65 % 67 % 27 % 1017,5 hPa 0,0 l/m 5,7 km/h (1 Bft) S 0,08 h 0,0 UV-I 11,0 C 18,8 C 6,2 km/h (2 Bft)
22.09.2011 18:00 17,0 C 18,7 C 16,8 C 17,1 C 17,0 C 0,2 C 66 % 68 % 5 % 1017,7 hPa 0,0 l/m 2,8 km/h (1 Bft) SW 0,00 h 0,0 UV-I 10,7 C 17,0 C 2,9 km/h (1 Bft)
22.09.2011 19:00 15,9 C 18,8 C 15,7 C 15,8 C 15,6 C 0,0 C 69 % 72 % 0 % 1018,1 hPa 0,0 l/m 1,8 km/h (1 Bft) W-SW 0,00 h 0,0 UV-I 10,2 C 15,6 C 2,4 km/h (1 Bft)
22.09.2011 20:00 15,0 C 18,8 C 15,0 C 14,9 C 14,8 C 0,0 C 71 % 74 % 0 % 1018,7 hPa 0,0 l/m 0,8 km/h (0 Bft) W-SW 0,00 h 0,0 UV-I 9,8 C 14,8 C 1,4 km/h (1 Bft)
22.09.2011 21:00 13,8 C 18,8 C 14,1 C 13,7 C 13,5 C 0,0 C 77 % 80 % 0 % 1019,0 hPa 0,0 l/m 0,1 km/h (0 Bft) N 0,00 h 0,0 UV-I 10,0 C 13,5 C 0,3 km/h (0 Bft)
22.09.2011 22:00 12,6 C 18,8 C 13,1 C 12,3 C 11,5 C 0,0 C 82 % 83 % 0 % 1019,1 hPa 0,0 l/m 0,0 km/h (0 Bft) N 0,00 h 0,0 UV-I 9,7 C 11,5 C 0,0 km/h (0 Bft)
22.09.2011 23:00 11,3 C 18,8 C 12,1 C 11,0 C 10,4 C 0,0 C 85 % 86 % 0 % 1019,1 hPa 0,0 l/m 0,0 km/h (0 Bft) N 0,00 h 0,0 UV-I 8,9 C 10,4 C 0,0 km/h (0 Bft)
23.09.2011 00:00 10,9 C 18,8 C 11,8 C 10,9 C 10,7 C 0,0 C 88 % 88 % 0 % 1019,2 hPa 0,0 l/m 0,2 km/h (0 Bft) N 0,00 h 0,0 UV-I 9,0 C 10,7 C 0,2 km/h (0 Bft)
23.09.2011 01:00 11,2 C 18,8 C 11,9 C 11,1 C 10,9 C 0,0 C 88 % 88 % 0 % 1019,2 hPa 0,0 l/m 0,0 km/h (0 Bft) N 0,00 h 0,0 UV-I 9,2 C 10,9 C 0,0 km/h (0 Bft)
23.09.2011 02:00 10,8 C 18,8 C 11,7 C 10,7 C 10,4 C 0,0 C 88 % 88 % 0 % 1019,3 hPa 0,0 l/m 0,0 km/h (0 Bft) N 0,00 h 0,0 UV-I 8,9 C 10,4 C 0,0 km/h (0 Bft)
23.09.2011 03:00 10,4 C 18,8 C 11,2 C 10,1 C 9,6 C 0,0 C 88 % 88 % 0 % 1019,0 hPa 0,0 l/m 0,0 km/h (0 Bft) N 0,00 h 0,0 UV-I 8,5 C 9,6 C 0,0 km/h (0 Bft)
23.09.2011 04:00 9,4 C 18,8 C 10,6 C 9,2 C 8,7 C 0,0 C 89 % 89 % 0 % 1019,0 hPa 0,0 l/m 0,0 km/h (0 Bft) N 0,00 h 0,0 UV-I 7,8 C 8,7 C 0,0 km/h (0 Bft)
23.09.2011 05:00 8,9 C 18,8 C 10,0 C 8,7 C 8,3 C 0,0 C 90 % 89 % 0 % 1019,0 hPa 0,0 l/m 0,0 km/h (0 Bft) N 0,00 h 0,0 UV-I 7,4 C 8,3 C 0,0 km/h (0 Bft)
23.09.2011 06:00 8,6 C 18,8 C 9,7 C 8,4 C 8,0 C 0,0 C 91 % 89 % 0 % 1019,1 hPa 0,0 l/m 0,0 km/h (0 Bft) N 0,00 h 0,0 UV-I 7,3 C 8,0 C 0,0 km/h (0 Bft)
23.09.2011 07:00 8,4 C 18,7 C 9,5 C 8,3 C 8,1 C 0,0 C 91 % 90 % 0 % 1018,9 hPa 0,0 l/m 0,0 km/h (0 Bft) N 0,00 h 0,0 UV-I 7,1 C 8,1 C 0,0 km/h (0 Bft)
23.09.2011 08:00 9,4 C 18,5 C 10,4 C 10,2 C 10,2 C 0,9 C 93 % 90 % 23 % 1019,6 hPa 0,0 l/m 0,1 km/h (0 Bft) N 0,00 h 0,0 UV-I 8,2 C 10,2 C 0,3 km/h (0 Bft)
23.09.2011 09:00 11,6 C 18,3 C 12,0 C 13,6 C 13,6 C 2,0 C 91 % 89 % 53 % 1019,5 hPa 0,0 l/m 1,6 km/h (1 Bft) SW 0,00 h 0,0 UV-I 10,1 C 13,6 C 3,4 km/h (1 Bft)
23.09.2011 10:00 13,5 C 18,3 C 13,0 C 15,2 C 15,2 C 1,7 C 83 % 86 % 44 % 1019,7 hPa 0,0 l/m 1,6 km/h (1 Bft) W-SW 0,00 h 0,1 UV-I 10,7 C 15,2 C 2,5 km/h (1 Bft)
23.09.2011 11:00 14,5 C 18,3 C 13,8 C 16,5 C 16,5 C 2,0 C 80 % 84 % 53 % 1019,6 hPa 0,0 l/m 1,1 km/h (1 Bft) S 0,00 h 0,1 UV-I 11,0 C 16,5 C 1,3 km/h (1 Bft)
23.09.2011 12:00 15,8 C 18,3 C 14,8 C 18,7 C 18,7 C 3,0 C 73 % 78 % 75 % 1019,2 hPa 0,0 l/m 3,6 km/h (1 Bft) SW 0,42 h 0,1 UV-I 11,0 C 18,7 C 5,9 km/h (2 Bft)
23.09.2011 13:00 16,4 C 18,3 C 15,4 C 18,7 C 18,7 C 2,3 C 69 % 74 % 58 % 1018,8 hPa 0,0 l/m 3,8 km/h (1 Bft) SW 0,42 h 0,0 UV-I 10,7 C 18,7 C 4,6 km/h (1 Bft)
23.09.2011 14:00 16,3 C 18,3 C 16,6 C 18,3 C 18,3 C 2,0 C 67 % 69 % 53 % 1018,6 hPa 0,0 l/m 4,4 km/h (1 Bft) W-SW 0,00 h 0,0 UV-I 10,2 C 18,3 C 6,4 km/h (2 Bft)
23.09.2011 15:00 18,2 C 18,3 C 21,4 C 21,0 C 21,0 C 2,8 C 57 % 51 % 74 % 1018,0 hPa 0,0 l/m 5,8 km/h (2 Bft) W-SW 0,28 h 0,0 UV-I 9,6 C 21,0 C 7,6 km/h (2 Bft)
23.09.2011 16:00 17,2 C 18,3 C 17,8 C 17,8 C 17,8 C 0,6 C 58 % 57 % 17 % 1018,1 hPa 0,0 l/m 4,4 km/h (1 Bft) W-SW 0,00 h 0,0 UV-I 8,8 C 17,8 C 5,3 km/h (1 Bft)
23.09.2011 17:00 16,5 C 18,3 C 16,7 C 18,3 C 18,3 C 1,7 C 62 % 63 % 45 % 1018,1 hPa 0,0 l/m 3,0 km/h (1 Bft) W-SW 0,33 h 0,0 UV-I 9,2 C 18,3 C 3,5 km/h (1 Bft)
23.09.2011 18:00 15,5 C 18,3 C 15,5 C 16,4 C 16,4 C 0,8 C 66 % 69 % 22 % 1018,1 hPa 0,0 l/m 0,8 km/h (0 Bft) W 0,75 h 0,0 UV-I 9,2 C 16,4 C 0,7 km/h (0 Bft)
23.09.2011 19:00 12,6 C 18,3 C 13,1 C 12,1 C 11,1 C 0,0 C 77 % 78 % 0 % 1018,6 hPa 0,0 l/m 0,0 km/h (0 Bft) N 0,00 h 0,0 UV-I 8,7 C 11,1 C 0,0 km/h (0 Bft)
23.09.2011 20:00 10,3 C 18,3 C 11,6 C 9,8 C 8,9 C 0,0 C 84 % 84 % 0 % 1018,9 hPa 0,0 l/m 0,0 km/h (0 Bft) N 0,00 h 0,0 UV-I 7,6 C 8,9 C 0,0 km/h (0 Bft)
23.09.2011 21:00 8,8 C 18,4 C 10,6 C 8,5 C 7,8 C 0,0 C 87 % 86 % 0 % 1018,9 hPa 0,0 l/m 0,0 km/h (0 Bft) N 0,00 h 0,0 UV-I 6,7 C 7,8 C 0,0 km/h (0 Bft)
23.09.2011 22:00 7,8 C 18,7 C 9,8 C 7,6 C 7,2 C 0,0 C 88 % 87 % 0 % 1019,0 hPa 0,0 l/m 0,0 km/h (0 Bft) N 0,00 h 0,0 UV-I 5,9 C 7,2 C 0,0 km/h (0 Bft)
23.09.2011 23:00 7,1 C 18,5 C 9,2 C 6,9 C 6,6 C 0,0 C 89 % 88 % 0 % 1019,2 hPa 0,0 l/m 0,0 km/h (0 Bft) N 0,00 h 0,0 UV-I 5,4 C 6,6 C 0,0 km/h (0 Bft)
24.09.2011 00:00 6,5 C 18,5 C 8,8 C 6,3 C 6,0 C 0,0 C 90 % 88 % 0 % 1019,4 hPa 0,0 l/m 0,0 km/h (0 Bft) N 0,00 h 0,0 UV-I 5,0 C 6,0 C 0,0 km/h (0 Bft)
24.09.2011 01:00 6,2 C 18,4 C 8,2 C 6,0 C 5,7 C 0,0 C 90 % 88 % 0 % 1019,4 hPa 0,0 l/m 0,0 km/h (0 Bft) N 0,00 h 0,0 UV-I 4,7 C 5,7 C 0,0 km/h (0 Bft)
24.09.2011 02:00 5,8 C 18,4 C 7,9 C 5,6 C 5,2 C 0,0 C 91 % 89 % 0 % 1019,4 hPa 0,0 l/m 0,0 km/h (0 Bft) N 0,00 h 0,0 UV-I 4,4 C 5,2 C 0,0 km/h (0 Bft)
24.09.2011 03:00 5,3 C 18,2 C 7,4 C 5,1 C 4,9 C 0,0 C 91 % 89 % 0 % 1019,8 hPa 0,0 l/m 0,0 km/h (0 Bft) N 0,00 h 0,0 UV-I 3,9 C 4,9 C 0,0 km/h (0 Bft)
24.09.2011 04:00 5,1 C 18,1 C 7,1 C 4,9 C 4,6 C 0,0 C 91 % 89 % 0 % 1020,1 hPa 0,0 l/m 0,0 km/h (0 Bft) N 0,00 h 0,0 UV-I 3,7 C 4,6 C 0,0 km/h (0 Bft)
24.09.2011 05:00 4,8 C 17,9 C 6,8 C 4,6 C 4,2 C 0,0 C 92 % 89 % 0 % 1020,2 hPa 0,0 l/m 0,0 km/h (0 Bft) N 0,00 h 0,0 UV-I 3,6 C 4,2 C 0,0 km/h (0 Bft)
24.09.2011 06:00 4,4 C 17,9 C 6,5 C 4,3 C 3,9 C 0,0 C 92 % 89 % 0 % 1020,2 hPa 0,0 l/m 0,0 km/h (0 Bft) N 0,00 h 0,0 UV-I 3,2 C 3,9 C 0,0 km/h (0 Bft)
24.09.2011 07:00 4,4 C 17,7 C 6,3 C 5,7 C 5,5 C 1,3 C 92 % 89 % 33 % 1020,5 hPa 0,0 l/m 0,0 km/h (0 Bft) N 0,50 h 0,0 UV-I 3,3 C 5,5 C 0,0 km/h (0 Bft)
24.09.2011 08:00 5,6 C 17,5 C 7,0 C 7,7 C 7,7 C 2,1 C 93 % 90 % 56 % 1020,9 hPa 0,0 l/m 0,0 km/h (0 Bft) N 0,42 h 0,0 UV-I 4,5 C 7,7 C 0,0 km/h (0 Bft)
24.09.2011 09:00 7,5 C 17,2 C 8,7 C 11,9 C 11,9 C 4,4 C 94 % 91 % 92 % 1020,9 hPa 0,0 l/m 0,5 km/h (0 Bft) SW 0,92 h 0,0 UV-I 6,5 C 11,9 C 1,4 km/h (1 Bft)
24.09.2011 10:00 10,3 C 17,1 C 11,0 C 13,6 C 13,6 C 3,2 C 94 % 90 % 84 % 1020,4 hPa 0,0 l/m 0,6 km/h (0 Bft) O 0,65 h 0,0 UV-I 9,4 C 13,6 C 0,9 km/h (0 Bft)
24.09.2011 11:00 14,7 C 17,0 C 13,6 C 16,1 C 16,1 C 1,4 C 80 % 84 % 36 % 1020,2 hPa 0,0 l/m 1,0 km/h (0 Bft) O-NO 0,00 h 0,0 UV-I 11,2 C 16,1 C 2,2 km/h (1 Bft)
24.09.2011 12:00 17,4 C 17,0 C 15,5 C 20,1 C 20,1 C 2,8 C 61 % 73 % 64 % 1019,5 hPa 0,0 l/m 2,3 km/h (1 Bft) NO 0,42 h 0,4 UV-I 9,6 C 20,1 C 4,3 km/h (1 Bft)
24.09.2011 13:00 18,5 C 17,0 C 16,7 C 24,3 C 24,3 C 5,8 C 58 % 68 % 100 % 1019,6 hPa 0,0 l/m 2,3 km/h (1 Bft) N-NW 1,00 h 0,9 UV-I 10,0 C 24,3 C 3,1 km/h (1 Bft)
24.09.2011 14:00 19,3 C 17,0 C 19,6 C 25,4 C 25,4 C 6,1 C 55 % 59 % 100 % 1019,2 hPa 0,0 l/m 2,0 km/h (1 Bft) O-NO 1,00 h 0,0 UV-I 9,9 C 25,4 C 2,1 km/h (1 Bft)
24.09.2011 15:00 19,7 C 17,4 C 23,4 C 24,8 C 24,8 C 5,1 C 54 % 48 % 100 % 1018,5 hPa 0,0 l/m 2,9 km/h (1 Bft) O-NO 1,00 h 0,0 UV-I 10,1 C 24,8 C 4,2 km/h (1 Bft)
24.09.2011 16:00 19,8 C 17,7 C 22,4 C 23,6 C 23,6 C 3,8 C 52 % 49 % 97 % 1018,1 hPa 0,0 l/m 4,0 km/h (1 Bft) O-NO 1,00 h 0,0 UV-I 9,7 C 23,6 C 4,7 km/h (1 Bft)
24.09.2011 17:00 19,6 C 17,8 C 19,8 C 23,0 C 23,0 C 3,5 C 54 % 56 % 89 % 1018,1 hPa 0,0 l/m 3,2 km/h (1 Bft) O-NO 1,00 h 0,0 UV-I 10,0 C 23,0 C 4,2 km/h (1 Bft)
24.09.2011 18:00 18,3 C 17,9 C 17,8 C 19,6 C 19,6 C 1,3 C 62 % 66 % 34 % 1018,5 hPa 0,0 l/m 1,1 km/h (1 Bft) O-NO 0,75 h 0,0 UV-I 11,0 C 19,6 C 1,0 km/h (0 Bft)
24.09.2011 19:00 15,3 C 18,1 C 15,4 C 14,8 C 13,8 C 0,0 C 74 % 77 % 0 % 1018,3 hPa 0,0 l/m 0,0 km/h (0 Bft) N 0,00 h 0,0 UV-I 10,6 C 13,8 C 0,0 km/h (0 Bft)
24.09.2011 20:00 13,0 C 18,3 C 13,8 C 12,6 C 11,9 C 0,0 C 80 % 81 % 0 % 1018,6 hPa 0,0 l/m 0,0 km/h (0 Bft) N 0,00 h 0,0 UV-I 9,7 C 11,9 C 0,0 km/h (0 Bft)
24.09.2011 21:00 11,5 C 18,4 C 12,7 C 11,3 C 10,7 C 0,0 C 85 % 84 % 0 % 1018,9 hPa 0,0 l/m 0,0 km/h (0 Bft) N 0,00 h 0,0 UV-I 9,1 C 10,7 C 0,0 km/h (0 Bft)
24.09.2011 22:00 11,0 C 18,5 C 12,2 C 10,8 C 10,4 C 0,0 C 86 % 85 % 0 % 1019,1 hPa 0,0 l/m 0,0 km/h (0 Bft) N 0,00 h 0,0 UV-I 8,8 C 10,4 C 0,0 km/h (0 Bft)
24.09.2011 23:00 10,2 C 18,5 C 11,4 C 10,0 C 9,6 C 0,0 C 88 % 86 % 0 % 1019,3 hPa 0,0 l/m 0,0 km/h (0 Bft) N 0,00 h 0,0 UV-I 8,3 C 9,6 C 0,0 km/h (0 Bft)
25.09.2011 00:00 9,4 C 18,4 C 11,2 C 9,1 C 8,6 C 0,0 C 89 % 86 % 0 % 1019,2 hPa 0,0 l/m 0,0 km/h (0 Bft) N 0,00 h 0,0 UV-I 7,6 C 8,6 C 0,0 km/h (0 Bft)
25.09.2011 01:00 8,9 C 18,4 C 10,7 C 8,7 C 8,5 C 0,0 C 90 % 87 % 0 % 1019,2 hPa 0,0 l/m 0,0 km/h (0 Bft) N 0,00 h 0,0 UV-I 7,3 C 8,5 C 0,0 km/h (0 Bft)
25.09.2011 02:00 8,6 C 18,3 C 10,0 C 8,4 C 8,1 C 0,0 C 91 % 88 % 0 % 1019,2 hPa 0,0 l/m 0,0 km/h (0 Bft) N 0,00 h 0,0 UV-I 7,1 C 8,1 C 0,0 km/h (0 Bft)
25.09.2011 03:00 8,1 C 18,2 C 9,6 C 7,9 C 7,5 C 0,0 C 91 % 89 % 0 % 1019,2 hPa 0,0 l/m 0,0 km/h (0 Bft) N 0,00 h 0,0 UV-I 6,7 C 7,5 C 0,0 km/h (0 Bft)
25.09.2011 04:00 7,5 C 18,2 C 9,2 C 7,3 C 6,9 C 0,0 C 91 % 89 % 0 % 1019,5 hPa 0,0 l/m 0,0 km/h (0 Bft) N 0,00 h 0,0 UV-I 6,1 C 6,9 C 0,0 km/h (0 Bft)
25.09.2011 05:00 6,9 C 18,1 C 9,0 C 6,7 C 6,3 C 0,0 C 91 % 89 % 0 % 1019,4 hPa 0,0 l/m 0,0 km/h (0 Bft) N 0,00 h 0,0 UV-I 5,5 C 6,3 C 0,0 km/h (0 Bft)
25.09.2011 06:00 6,1 C 18,1 C 8,3 C 6,0 C 5,7 C 0,0 C 92 % 89 % 0 % 1019,8 hPa 0,0 l/m 0,0 km/h (0 Bft) N 0,00 h 0,0 UV-I 4,9 C 5,7 C 0,0 km/h (0 Bft)
25.09.2011 07:00 6,0 C 17,9 C 8,0 C 7,3 C 7,2 C 1,3 C 92 % 89 % 34 % 1020,2 hPa 0,0 l/m 0,0 km/h (0 Bft) N 0,50 h 0,0 UV-I 4,8 C 7,2 C 0,0 km/h (0 Bft)
25.09.2011 08:00 7,4 C 17,6 C 8,3 C 9,0 C 9,0 C 1,6 C 93 % 90 % 43 % 1020,6 hPa 0,0 l/m 0,0 km/h (0 Bft) N 0,33 h 0,0 UV-I 6,4 C 9,0 C 0,0 km/h (0 Bft)
25.09.2011 09:00 9,3 C 17,3 C 9,2 C 12,8 C 12,8 C 3,5 C 94 % 91 % 87 % 1020,6 hPa 0,0 l/m 0,3 km/h (0 Bft) N 0,67 h 0,0 UV-I 8,4 C 12,8 C 1,5 km/h (1 Bft)
25.09.2011 10:00 12,6 C 17,2 C 12,1 C 15,3 C 15,3 C 2,7 C 93 % 90 % 72 % 1020,6 hPa 0,0 l/m 1,0 km/h (0 Bft) W-SW 0,25 h 0,0 UV-I 11,5 C 15,3 C 1,5 km/h (1 Bft)
25.09.2011 11:00 16,4 C 17,2 C 15,1 C 18,3 C 18,3 C 1,8 C 85 % 88 % 48 % 1020,6 hPa 0,0 l/m 1,9 km/h (1 Bft) SW 0,00 h 0,0 UV-I 13,8 C 18,3 C 4,2 km/h (1 Bft)
25.09.2011 12:00 19,9 C 17,2 C 17,1 C 22,6 C 22,6 C 2,7 C 70 % 80 % 68 % 1020,0 hPa 0,0 l/m 3,0 km/h (1 Bft) SW 0,42 h 2,1 UV-I 14,2 C 22,6 C 4,3 km/h (1 Bft)
25.09.2011 13:00 21,8 C 17,2 C 17,9 C 26,6 C 26,6 C 4,9 C 61 % 78 % 100 % 1019,9 hPa 0,0 l/m 3,0 km/h (1 Bft) S 1,00 h 0,0 UV-I 13,9 C 26,6 C 4,0 km/h (1 Bft)
25.09.2011 14:00 22,5 C 17,2 C 19,3 C 27,4 C 27,4 C 4,9 C 58 % 73 % 100 % 1019,7 hPa 0,0 l/m 2,5 km/h (1 Bft) W 1,00 h 0,0 UV-I 13,9 C 27,4 C 3,5 km/h (1 Bft)
25.09.2011 15:00 24,1 C 17,2 C 26,5 C 27,2 C 27,2 C 3,1 C 54 % 50 % 81 % 1019,8 hPa 0,0 l/m 3,1 km/h (1 Bft) W 0,50 h 0,0 UV-I 14,1 C 27,2 C 4,2 km/h (1 Bft)
25.09.2011 16:00 25,0 C 17,2 C 25,6 C 27,0 C 27,0 C 2,1 C 51 % 50 % 54 % 1019,9 hPa 0,0 l/m 2,4 km/h (1 Bft) SW 0,00 h 0,0 UV-I 14,2 C 27,0 C 3,1 km/h (1 Bft)
25.09.2011 17:00 22,6 C 17,2 C 22,3 C 26,1 C 26,1 C 3,5 C 55 % 59 % 91 % 1020,0 hPa 0,0 l/m 0,6 km/h (0 Bft) N 0,92 h 0,0 UV-I 13,2 C 26,1 C 0,6 km/h (0 Bft)
25.09.2011 18:00 20,0 C 17,2 C 21,7 C 22,1 C 22,1 C 2,1 C 68 % 61 % 55 % 1020,3 hPa 0,0 l/m 0,0 km/h (0 Bft) N 0,92 h 0,0 UV-I 13,9 C 22,1 C 0,0 km/h (0 Bft)
25.09.2011 19:00 16,7 C 17,2 C 21,7 C 16,2 C 15,2 C 0,0 C 80 % 61 % 0 % 1020,5 hPa 0,0 l/m 0,0 km/h (0 Bft) N 0,00 h 0,0 UV-I 13,1 C 15,2 C 0,0 km/h (0 Bft)
25.09.2011 20:00 14,3 C 17,2 C 21,7 C 13,9 C 13,1 C 0,0 C 86 % 61 % 0 % 1020,7 hPa 0,0 l/m 0,0 km/h (0 Bft) N 0,00 h 0,0 UV-I 12,0 C 13,1 C 0,0 km/h (0 Bft)
25.09.2011 21:00 12,9 C 17,2 C 21,7 C 12,7 C 12,1 C 0,0 C 88 % 61 % 0 % 1021,0 hPa 0,0 l/m 0,0 km/h (0 Bft) N 0,00 h 0,0 UV-I 11,0 C 12,1 C 0,0 km/h (0 Bft)
25.09.2011 22:00 12,0 C 19,0 C 21,7 C 11,8 C 11,4 C 0,0 C 89 % 61 % 0 % 1021,1 hPa 0,0 l/m 0,0 km/h (0 Bft) N 0,00 h 0,0 UV-I 10,3 C 11,4 C 0,0 km/h (0 Bft)
25.09.2011 23:00 11,2 C 19,2 C 21,7 C 11,0 C 10,6 C 0,0 C 90 % 61 % 0 % 1021,2 hPa 0,0 l/m 0,1 km/h (0 Bft) N 0,00 h 0,0 UV-I 9,6 C 10,6 C 0,0 km/h (0 Bft)
Min-Datum _ 24.09.11 24.09.11 24.09.11 24.09.11 24.09.11 19.09.11 24.09.11 24.09.11 19.09.11 19.09.11 - 19.09.11 - - 19.09.11 24.09.11 24.09.11 19.09.11
_ Min-Zeit 06:55 10:35 07:00 06:55 06:55 00:00 16:35 15:55 00:00 00:20 - 06:45 - - 00:00 06:55 06:55 00:00
Minimum _ 4,3 C 17,0 C 6,2 C 4,1 C 3,6 C 0,0 C 50 % 47 % 0 % 1007,9 hPa - 0,0 km/h (0 Bft) - - 0,0 UV-I 3,1 C 3,6 C 0,0 km/h (0 Bft)
Max-Datum _ 25.09.11 19.09.11 25.09.11 25.09.11 25.09.11 24.09.11 21.09.11 19.09.11 19.09.11 20.09.11 19.09.11 22.09.11 - 24.09.11 24.09.11 25.09.11 25.09.11 22.09.11
_ Max-Zeit 16:40 00:00 15:40 14:35 14:35 14:10 10:20 00:00 17:25 22:00 00:00 12:15 - 15:15 13:00 12:45 14:35 15:10
Maximum _ 25,3 C 20,1 C 27,1 C 28,1 C 28,1 C 6,9 C 95 % 96 % 100 % 1024,1 hPa 0,0 l/m 10,5 km/h
W-SW (2 Bft)
- 0,25 h 3,4 UV-I 15,0 C 28,1 C 24,3 km/h
SW (4 Bft)
Durchschnitt _ 12,8 C 18,5 C 13,6 C 13,8 C 13,6 C 1,2 C 81 % 82 % 28 % 1018,8 hPa #0,0 l/m 1,1 km/h (1 Bft) W-SW #28:52 h 0,4 UV-I 9,4 C 13,6 C 1,6 km/h (1 Bft)
2013 www.wetterstation-wechselburg.de